Time;durP1;ratioP1;P1;durP2;ratioP2;P2;SDS_P1;SDS_P2;PMS_P1;PMS_P2;Temp;Humidity;BMP_temperature;BMP_pressure;BME280_temperature;BME280_humidity;BME280_pressure;Samples;Min_cycle;Max_cycle;Signal;HPM_P1;HPM_P2
2023/04/10 00:01:43;;;;;;;10.10;5.63;;;7.30;99.90;;;;;;5071897;28;20032;-66
2023/04/10 00:04:09;;;;;;;7.40;5.73;;;7.20;99.90;;;;;;5071617;28;20034;-66
2023/04/10 00:06:34;;;;;;;11.27;6.93;;;7.20;99.90;;;;;;5071898;28;20032;-66
2023/04/10 00:09:00;;;;;;;11.10;7.33;;;7.20;99.90;;;;;;5068848;28;20429;-65
2023/04/10 00:11:26;;;;;;;10.75;6.85;;;7.20;99.90;;;;;;5054186;28;20086;-65
2023/04/10 00:13:53;;;;;;;11.23;6.57;;;7.20;99.90;;;;;;5071134;28;20036;-66
2023/04/10 00:16:19;;;;;;;11.82;6.95;;;7.20;99.90;;;;;;5069993;28;20465;-67
2023/04/10 00:18:44;;;;;;;10.38;6.55;;;7.10;99.90;;;;;;5071566;28;20028;-68
2023/04/10 00:21:10;;;;;;;12.70;6.57;;;7.20;99.90;;;;;;5069709;28;20055;-68
2023/04/10 00:23:36;;;;;;;11.40;6.60;;;7.10;99.90;;;;;;5071205;28;20815;-68
2023/04/10 00:26:02;;;;;;;10.60;6.93;;;7.00;99.90;;;;;;5071039;28;20113;-68
2023/04/10 00:28:28;;;;;;;12.50;7.32;;;7.00;99.90;;;;;;5070849;28;20075;-66
2023/04/10 00:30:53;;;;;;;20.20;6.47;;;6.90;99.90;;;;;;5069888;28;20064;-67
2023/04/10 00:33:19;;;;;;;12.30;7.37;;;6.80;99.90;;;;;;5071026;28;20032;-65
2023/04/10 00:35:45;;;;;;;11.40;7.13;;;6.90;99.90;;;;;;5071173;28;20104;-65
2023/04/10 00:38:11;;;;;;;11.18;6.60;;;6.80;99.90;;;;;;5070754;28;20017;-66
2023/04/10 00:40:37;;;;;;;9.50;6.47;;;6.80;99.90;;;;;;5070838;28;20039;-65
2023/04/10 00:43:02;;;;;;;11.73;6.73;;;6.70;99.90;;;;;;5070596;28;20021;-67
2023/04/10 00:45:28;;;;;;;10.37;6.80;;;6.70;99.90;;;;;;5070403;28;20033;-67
2023/04/10 00:47:54;;;;;;;11.37;6.80;;;6.60;99.90;;;;;;5069417;28;20032;-66
2023/04/10 00:50:23;;;;;;;11.20;6.88;;;6.70;99.90;;;;;;5070828;28;20113;-67
2023/04/10 00:52:50;;;;;;;15.73;8.10;;;6.60;99.90;;;;;;5070860;28;20036;-69
2023/04/10 00:55:16;;;;;;;13.25;7.47;;;6.60;99.90;;;;;;5069510;28;20060;-67
2023/04/10 00:57:47;;;;;;;14.30;8.07;;;6.70;99.90;;;;;;5070944;28;20059;-67
2023/04/10 01:00:14;;;;;;;11.23;7.35;;;6.70;99.90;;;;;;5071027;28;20028;-68
2023/04/10 01:02:40;;;;;;;13.02;7.75;;;6.70;99.90;;;;;;5060018;28;20013;-68
2023/04/10 01:05:07;;;;;;;12.30;7.57;;;6.70;99.90;;;;;;5070694;28;20040;-67
2023/04/10 01:07:56;;;;;;;14.85;7.57;;;6.70;99.90;;;;;;5070114;28;20056;-68
2023/04/10 01:10:28;;;;;;;9.90;7.32;;;6.70;99.90;;;;;;5070195;28;20043;-67
2023/04/10 01:13:04;;;;;;;12.20;7.32;;;6.70;99.90;;;;;;5070479;28;20032;-67
2023/04/10 01:15:37;;;;;;;10.02;6.72;;;6.80;99.90;;;;;;5070581;28;20036;-66
2023/04/10 01:18:16;;;;;;;11.52;6.75;;;6.80;99.90;;;;;;5070112;28;20056;-67
2023/04/10 01:20:42;;;;;;;12.48;6.80;;;6.80;99.90;;;;;;5069641;28;20029;-70
2023/04/10 01:23:23;;;;;;;9.15;6.68;;;6.80;99.90;;;;;;5070123;28;20098;-65
2023/04/10 01:26:00;;;;;;;9.25;6.15;;;6.60;99.90;;;;;;5069970;28;20039;-68
2023/04/10 01:28:47;;;;;;;12.70;7.55;;;6.50;99.90;;;;;;5070126;28;20037;-69
2023/04/10 01:31:17;;;;;;;;;;;6.40;99.90;;;;;;5070461;28;20039;-68
2023/04/10 01:33:49;;;;;;;11.98;7.70;;;6.50;99.90;;;;;;5070133;28;19908;-67
2023/04/10 01:36:23;;;;;;;12.70;7.60;;;6.40;99.90;;;;;;5070220;28;20108;-68
2023/04/10 01:38:50;;;;;;;10.85;7.07;;;6.40;99.90;;;;;;5069826;28;20047;-66
2023/04/10 01:41:17;;;;;;;13.07;7.18;;;6.30;99.90;;;;;;5069762;28;20040;-67
2023/04/10 01:43:48;;;;;;;8.75;5.88;;;6.30;99.90;;;;;;5070060;28;20384;-67
2023/04/10 01:46:15;;;;;;;10.18;6.30;;;6.20;99.90;;;;;;5070011;28;20036;-65
2023/04/10 01:48:41;;;;;;;12.43;6.85;;;6.20;99.90;;;;;;5069719;28;20033;-65
2023/04/10 01:51:09;;;;;;;12.80;7.47;;;6.20;99.90;;;;;;5069920;28;20039;-65
2023/04/10 01:53:35;;;;;;;13.57;6.72;;;6.20;99.90;;;;;;5069604;28;20503;-65
2023/04/10 01:56:02;;;;;;;10.03;6.23;;;6.30;99.90;;;;;;5069540;28;20104;-65
2023/04/10 01:58:27;;;;;;;11.57;7.00;;;6.20;99.90;;;;;;5069570;28;20086;-65
2023/04/10 02:00:53;;;;;;;10.50;7.20;;;6.20;99.90;;;;;;5069437;28;20064;-68
2023/04/10 02:03:19;;;;;;;11.17;7.40;;;6.30;99.90;;;;;;5068424;28;20040;-68
2023/04/10 02:06:06;;;;;;;10.80;6.67;;;6.30;99.90;;;;;;5069771;28;20270;-66
2023/04/10 02:08:40;;;;;;;10.75;6.82;;;6.10;99.90;;;;;;5065250;28;20040;-70
2023/04/10 02:11:11;;;;;;;14.18;7.65;;;6.10;99.90;;;;;;5068976;28;20500;-68
2023/04/10 02:13:39;;;;;;;10.60;6.30;;;6.10;99.90;;;;;;5068866;28;20066;-69
2023/04/10 02:16:07;;;;;;;15.23;6.75;;;6.00;99.90;;;;;;5068249;28;20032;-66
2023/04/10 02:18:34;;;;;;;12.30;7.97;;;6.00;99.90;;;;;;5068152;28;20837;-67
2023/04/10 02:21:01;;;;;;;11.88;7.50;;;6.10;99.90;;;;;;5068043;28;20025;-67
2023/04/10 02:23:27;;;;;;;12.93;7.57;;;6.00;99.90;;;;;;5068873;28;20028;-68
2023/04/10 02:25:55;;;;;;;13.97;7.90;;;6.10;99.90;;;;;;5068533;28;20035;-66
2023/04/10 02:28:20;;;;;;;14.48;7.85;;;6.20;99.90;;;;;;5068178;28;20033;-66
2023/04/10 02:30:46;;;;;;;11.40;7.37;;;6.10;99.90;;;;;;5068611;28;20049;-68
2023/04/10 02:33:11;;;;;;;12.83;7.10;;;6.00;99.90;;;;;;5066941;28;20073;-66
2023/04/10 02:35:37;;;;;;;10.10;7.43;;;5.90;99.90;;;;;;5068261;28;20029;-68
2023/04/10 02:38:02;;;;;;;13.17;6.63;;;6.10;99.90;;;;;;5068132;28;20031;-68
2023/04/10 02:40:28;;;;;;;10.23;6.77;;;6.10;99.90;;;;;;5067853;28;20085;-67
2023/04/10 02:42:54;;;;;;;11.03;6.27;;;6.00;99.90;;;;;;5068139;28;20488;-68
2023/04/10 02:45:19;;;;;;;13.93;6.97;;;6.00;99.90;;;;;;5068231;28;20203;-67
2023/04/10 02:47:45;;;;;;;10.50;7.13;;;6.00;99.90;;;;;;5067274;28;20533;-68
2023/04/10 02:50:10;;;;;;;9.83;6.90;;;6.10;99.90;;;;;;5067554;28;20370;-67
2023/04/10 02:52:36;;;;;;;10.20;7.17;;;6.00;99.90;;;;;;5067598;28;20029;-68
2023/04/10 02:55:02;;;;;;;11.60;7.30;;;6.00;99.90;;;;;;5067284;28;20764;-67
2023/04/10 02:57:27;;;;;;;23.00;8.37;;;5.90;99.90;;;;;;5067624;28;20070;-67
2023/04/10 02:59:53;;;;;;;14.70;7.47;;;5.90;99.90;;;;;;5067359;28;20108;-69
2023/04/10 03:02:19;;;;;;;12.15;9.00;;;5.80;99.90;;;;;;5067640;28;20035;-69
2023/04/10 03:04:45;;;;;;;12.17;7.43;;;5.90;99.90;;;;;;5067509;28;20109;-67
2023/04/10 03:07:10;;;;;;;11.83;7.57;;;5.90;99.90;;;;;;5067580;28;20031;-67
2023/04/10 03:09:36;;;;;;;9.87;6.90;;;5.80;99.90;;;;;;5067202;28;20044;-67
2023/04/10 03:12:02;;;;;;;11.75;7.25;;;5.80;99.90;;;;;;5067262;28;20033;-66
2023/04/10 03:14:27;;;;;;;11.23;7.83;;;5.80;99.90;;;;;;5067622;28;20496;-66
2023/04/10 03:16:53;;;;;;;10.63;7.63;;;5.70;99.90;;;;;;5067555;28;20025;-69
2023/04/10 03:19:18;;;;;;;11.27;7.17;;;5.70;99.90;;;;;;5066162;28;20024;-70
2023/04/10 03:21:45;;;;;;;12.30;7.70;;;5.60;99.90;;;;;;5067314;28;20480;-67
2023/04/10 03:24:10;;;;;;;13.70;7.80;;;5.70;99.90;;;;;;5059649;28;20492;-66
2023/04/10 03:26:36;;;;;;;14.17;7.73;;;5.60;99.90;;;;;;5065201;28;20071;-66
2023/04/10 03:29:02;;;;;;;12.03;7.70;;;5.60;99.90;;;;;;5050757;28;20121;-66
2023/04/10 03:31:28;;;;;;;12.07;7.90;;;5.60;99.90;;;;;;5046336;28;20024;-66
2023/04/10 03:33:53;;;;;;;15.27;9.27;;;5.60;99.90;;;;;;5046931;28;20037;-66
2023/04/10 03:36:19;;;;;;;14.03;9.43;;;5.60;99.90;;;;;;5050482;28;20032;-65
2023/04/10 03:38:45;;;;;;;14.77;8.53;;;5.60;99.90;;;;;;5067103;28;20488;-65
2023/04/10 03:41:10;;;;;;;15.93;9.17;;;5.80;99.90;;;;;;5064526;28;20025;-65
2023/04/10 03:43:36;;;;;;;15.63;8.80;;;5.70;99.90;;;;;;5064668;28;20055;-65
2023/04/10 03:46:01;;;;;;;11.60;8.13;;;5.60;99.90;;;;;;5047266;28;20025;-67
2023/04/10 03:48:29;;;;;;;11.80;7.97;;;5.60;99.90;;;;;;5067032;28;20040;-65
2023/04/10 03:50:55;;;;;;;14.82;8.77;;;5.60;99.90;;;;;;5066833;28;20049;-65
2023/04/10 03:53:20;;;;;;;13.52;8.70;;;5.60;99.90;;;;;;5067451;28;20021;-65
2023/04/10 03:55:46;;;;;;;14.97;8.53;;;5.60;99.90;;;;;;5067017;28;20507;-67
2023/04/10 03:58:12;;;;;;;14.47;8.57;;;5.60;99.90;;;;;;5064857;28;20128;-65
2023/04/10 04:00:38;;;;;;;16.33;8.73;;;5.60;99.90;;;;;;5066819;28;20040;-66
2023/04/10 04:03:04;;;;;;;12.00;8.38;;;5.60;99.90;;;;;;5066350;28;20275;-65
2023/04/10 04:05:30;;;;;;;11.52;8.43;;;5.60;99.90;;;;;;5061202;28;20031;-67
2023/04/10 04:07:56;;;;;;;12.65;8.85;;;5.60;99.90;;;;;;5066898;28;20083;-65
2023/04/10 04:10:23;;;;;;;11.43;8.10;;;5.60;99.90;;;;;;5066432;28;20036;-65
2023/04/10 04:12:48;;;;;;;12.75;8.32;;;5.60;99.90;;;;;;5066097;28;20566;-64
2023/04/10 04:15:14;;;;;;;12.60;8.30;;;5.60;99.90;;;;;;5066097;28;20113;-66
2023/04/10 04:17:40;;;;;;;13.43;7.47;;;5.60;99.90;;;;;;5066773;28;20068;-68
2023/04/10 04:20:06;;;;;;;15.30;7.88;;;5.60;99.90;;;;;;5066519;28;20063;-66
2023/04/10 04:22:32;;;;;;;17.35;8.05;;;5.60;99.90;;;;;;5066342;28;20363;-68
2023/04/10 04:24:58;;;;;;;10.73;8.07;;;5.50;99.90;;;;;;5066635;28;20527;-67
2023/04/10 04:27:23;;;;;;;10.23;6.90;;;5.40;99.90;;;;;;5066887;28;20039;-67
2023/04/10 04:29:49;;;;;;;11.77;8.07;;;5.40;99.90;;;;;;5064716;28;20504;-67
2023/04/10 04:32:15;;;;;;;11.10;8.03;;;5.50;99.90;;;;;;5066701;28;20056;-66
2023/04/10 04:34:40;;;;;;;17.92;8.02;;;5.50;99.90;;;;;;5065352;28;20094;-68
2023/04/10 04:37:06;;;;;;;14.40;8.93;;;5.50;99.90;;;;;;5066821;28;20056;-66
2023/04/10 04:39:31;;;;;;;12.33;8.77;;;5.50;99.90;;;;;;5066887;28;20098;-66
2023/04/10 04:41:57;;;;;;;14.47;8.23;;;5.50;99.90;;;;;;5066463;28;20039;-65
2023/04/10 04:44:23;;;;;;;12.53;8.30;;;5.50;99.90;;;;;;5067699;28;20484;-68
2023/04/10 04:46:48;;;;;;;15.47;9.17;;;5.50;99.90;;;;;;5067506;28;20024;-68
2023/04/10 04:49:14;;;;;;;12.40;9.13;;;5.50;99.90;;;;;;5066304;28;20063;-65
2023/04/10 04:51:40;;;;;;;14.25;8.52;;;5.40;99.90;;;;;;5064918;28;20821;-69
2023/04/10 04:54:06;;;;;;;13.48;8.23;;;5.50;99.90;;;;;;5068721;28;20472;-68
2023/04/10 04:56:31;;;;;;;12.63;7.30;;;5.40;99.90;;;;;;5067637;28;20074;-70
2023/04/10 04:58:57;;;;;;;15.83;8.37;;;5.50;99.90;;;;;;5066913;28;20044;-69
2023/04/10 05:01:23;;;;;;;12.17;8.27;;;5.50;99.90;;;;;;5067048;28;20028;-69
2023/04/10 05:03:49;;;;;;;13.65;8.57;;;5.50;99.90;;;;;;5069310;28;20048;-69
2023/04/10 05:06:16;;;;;;;12.60;8.35;;;5.50;99.90;;;;;;5068506;28;20396;-66
2023/04/10 05:08:42;;;;;;;13.77;7.90;;;5.50;99.90;;;;;;5068028;28;20029;-70
2023/04/10 05:11:08;;;;;;;17.90;8.60;;;5.60;99.90;;;;;;5067802;28;20024;-67
2023/04/10 05:13:34;;;;;;;13.80;8.13;;;5.70;99.90;;;;;;5067344;28;20021;-69
2023/04/10 05:16:00;;;;;;;11.82;7.47;;;5.80;99.90;;;;;;5067622;28;20036;-70
2023/04/10 05:18:25;;;;;;;12.43;7.37;;;5.90;99.90;;;;;;5065867;28;20075;-69
2023/04/10 05:20:51;;;;;;;10.10;6.97;;;5.80;99.90;;;;;;5068564;28;20294;-69
2023/04/10 05:23:16;;;;;;;13.33;7.73;;;5.90;99.90;;;;;;5068482;28;20036;-67
2023/04/10 05:25:42;;;;;;;12.33;7.90;;;6.00;99.90;;;;;;5067706;28;20772;-69
2023/04/10 05:28:08;;;;;;;13.00;8.30;;;6.00;99.90;;;;;;5067841;28;20044;-68
2023/04/10 05:30:33;;;;;;;12.63;7.27;;;6.00;99.90;;;;;;5067767;28;20039;-69
2023/04/10 05:32:59;;;;;;;11.70;7.30;;;6.10;99.90;;;;;;5068932;28;20310;-70
2023/04/10 05:35:24;;;;;;;11.80;7.53;;;6.20;99.90;;;;;;5068378;28;20065;-67
2023/04/10 05:37:50;;;;;;;10.10;7.07;;;6.20;99.90;;;;;;5067984;28;20098;-68
2023/04/10 05:40:16;;;;;;;12.57;7.27;;;6.30;99.90;;;;;;5068086;28;20040;-70
2023/04/10 05:42:41;;;;;;;10.53;7.63;;;6.50;99.90;;;;;;5067364;28;20897;-66
2023/04/10 05:45:08;;;;;;;9.47;6.77;;;6.50;99.90;;;;;;5063765;28;20527;-65
2023/04/10 05:47:34;;;;;;;10.48;7.10;;;6.50;99.90;;;;;;5066997;28;20036;-67
2023/04/10 05:49:59;;;;;;;11.30;7.77;;;6.60;99.90;;;;;;5066241;28;20419;-67
2023/04/10 05:52:25;;;;;;;13.50;7.30;;;6.80;99.90;;;;;;5066757;28;20373;-66
2023/04/10 05:54:53;;;;;;;14.47;7.20;;;7.20;99.90;;;;;;5065349;28;20120;-66
2023/04/10 05:57:19;;;;;;;10.30;6.97;;;8.00;99.90;;;;;;5067526;28;20016;-65
2023/04/10 05:59:44;;;;;;;16.73;7.30;;;8.40;99.90;;;;;;5066697;28;20397;-66
2023/04/10 06:02:10;;;;;;;9.90;6.83;;;8.70;99.90;;;;;;5067739;28;20199;-66
2023/04/10 06:04:36;;;;;;;11.88;6.95;;;8.90;99.90;;;;;;5066345;28;20040;-70
2023/04/10 06:07:02;;;;;;;11.17;7.10;;;8.70;99.90;;;;;;5067144;28;20033;-67
2023/04/10 06:09:27;;;;;;;12.20;7.97;;;8.30;99.90;;;;;;5066529;28;20041;-68
2023/04/10 06:11:53;;;;;;;8.10;6.07;;;8.60;99.90;;;;;;5067497;28;20036;-66
2023/04/10 06:14:19;;;;;;;8.75;6.47;;;9.00;99.90;;;;;;5065661;28;20089;-66
2023/04/10 06:16:45;;;;;;;11.52;6.13;;;9.40;99.90;;;;;;5067752;28;20110;-66
2023/04/10 06:19:11;;;;;;;9.83;6.70;;;9.80;99.90;;;;;;5065948;28;20503;-65
2023/04/10 06:21:36;;;;;;;8.93;6.30;;;10.60;99.90;;;;;;5067143;28;20112;-65
2023/04/10 06:24:02;;;;;;;7.90;6.77;;;11.00;98.70;;;;;;5067605;28;20041;-65
2023/04/10 06:26:28;;;;;;;8.33;6.27;;;11.20;98.20;;;;;;5066741;28;20052;-65
2023/04/10 06:28:53;;;;;;;8.80;6.27;;;11.50;96.80;;;;;;5067467;28;20047;-66
2023/04/10 06:31:20;;;;;;;8.37;5.73;;;11.50;96.60;;;;;;5066889;28;20032;-66
2023/04/10 06:33:48;;;;;;;11.68;6.22;;;11.80;96.50;;;;;;5066687;28;20051;-66
2023/04/10 06:36:13;;;;;;;7.68;5.20;;;12.40;95.60;;;;;;5067406;28;20025;-66
2023/04/10 06:38:39;;;;;;;9.07;6.77;;;13.00;94.70;;;;;;5065118;28;20537;-65
2023/04/10 06:41:05;;;;;;;11.80;6.70;;;13.00;94.40;;;;;;5066173;28;20047;-67
2023/04/10 06:43:33;;;;;;;12.25;6.90;;;13.20;94.30;;;;;;5065863;28;20108;-67
2023/04/10 06:45:59;;;;;;;8.20;5.82;;;13.90;93.50;;;;;;5066980;28;20750;-66
2023/04/10 06:48:24;;;;;;;9.30;6.17;;;14.60;91.50;;;;;;5067985;28;20170;-66
2023/04/10 06:50:50;;;;;;;9.03;6.80;;;15.30;90.70;;;;;;5067733;28;20039;-66
2023/04/10 06:53:15;;;;;;;9.97;6.67;;;15.70;88.60;;;;;;5067132;28;20114;-65
2023/04/10 06:55:41;;;;;;;15.37;6.93;;;15.80;87.00;;;;;;5068179;28;20027;-66
2023/04/10 06:58:07;;;;;;;7.43;6.07;;;15.80;85.80;;;;;;5066985;28;20058;-66
2023/04/10 07:00:32;;;;;;;8.80;6.33;;;14.80;86.20;;;;;;5065572;28;20032;-66
2023/04/10 07:02:58;;;;;;;9.73;6.70;;;14.40;89.20;;;;;;5060059;28;20484;-65
2023/04/10 07:05:23;;;;;;;48.93;30.77;;;14.60;88.70;;;;;;5056930;28;20028;-66
2023/04/10 07:07:49;;;;;;;54.57;38.63;;;14.30;90.00;;;;;;5057909;28;20115;-66
2023/04/10 07:10:15;;;;;;;21.00;17.38;;;14.70;89.60;;;;;;5062236;28;20111;-67
2023/04/10 07:12:41;;;;;;;17.90;11.23;;;15.50;89.20;;;;;;5062727;28;20154;-66
2023/04/10 07:15:07;;;;;;;21.70;10.40;;;17.10;84.10;;;;;;5062090;28;20043;-68
2023/04/10 07:17:33;;;;;;;9.48;6.85;;;18.10;81.30;;;;;;5065648;28;20029;-67
2023/04/10 07:19:59;;;;;;;11.47;6.83;;;18.10;78.20;;;;;;5066394;28;20036;-67
2023/04/10 07:22:25;;;;;;;11.10;5.73;;;18.40;76.00;;;;;;5062979;28;20016;-67
2023/04/10 07:24:51;;;;;;;6.70;5.32;;;17.90;76.20;;;;;;5064280;28;20496;-67
2023/04/10 07:27:17;;;;;;;10.05;5.65;;;15.70;80.30;;;;;;5064277;28;20062;-67
2023/04/10 07:29:42;;;;;;;10.35;5.47;;;15.10;83.70;;;;;;5065160;28;20087;-68
2023/04/10 07:32:08;;;;;;;10.20;5.97;;;14.70;83.20;;;;;;5060608;28;20043;-67
2023/04/10 07:34:33;;;;;;;7.33;5.07;;;15.60;88.40;;;;;;5063535;28;20035;-68
2023/04/10 07:36:59;;;;;;;7.97;5.87;;;18.00;81.10;;;;;;5063777;28;20040;-66
2023/04/10 07:39:25;;;;;;;5.80;4.90;;;18.90;77.50;;;;;;5063184;28;20047;-67
2023/04/10 07:41:53;;;;;;;8.53;4.90;;;18.20;75.30;;;;;;5060766;28;20290;-66
2023/04/10 07:44:19;;;;;;;5.80;4.93;;;16.50;78.70;;;;;;5066014;28;20271;-69
2023/04/10 07:46:44;;;;;;;8.43;6.10;;;18.30;76.30;;;;;;5064761;28;20028;-69
2023/04/10 07:49:11;;;;;;;5.77;4.67;;;20.20;71.60;;;;;;5063265;28;20179;-71
2023/04/10 07:51:36;;;;;;;5.35;4.68;;;19.30;72.60;;;;;;5065323;28;20416;-69
2023/04/10 07:54:03;;;;;;;23.50;6.27;;;19.60;72.70;;;;;;5062555;28;20032;-70
2023/04/10 07:56:30;;;;;;;8.70;4.25;;;19.90;71.60;;;;;;5063417;28;20025;-68
2023/04/10 07:58:58;;;;;;;5.70;4.45;;;18.70;73.60;;;;;;5061908;28;20032;-68
2023/04/10 08:01:24;;;;;;;5.93;4.35;;;18.10;73.90;;;;;;5064126;28;20041;-68
2023/04/10 08:03:51;;;;;;;7.20;5.07;;;17.60;77.00;;;;;;5064704;28;20021;-69
2023/04/10 08:06:16;;;;;;;6.13;4.70;;;19.00;77.20;;;;;;5065543;28;20065;-69
2023/04/10 08:08:42;;;;;;;7.80;4.00;;;20.60;71.00;;;;;;5060969;28;20044;-67
2023/04/10 08:11:25;;;;;;;9.47;4.73;;;20.30;69.80;;;;;;5062874;28;20543;-68
2023/04/10 08:13:52;;;;;;;11.73;4.50;;;20.70;73.50;;;;;;5058222;28;20036;-67
2023/04/10 08:16:25;;;;;;;6.72;4.63;;;21.40;68.00;;;;;;5066069;28;20118;-67
2023/04/10 08:18:51;;;;;;;5.03;4.20;;;20.70;68.70;;;;;;5067905;28;20036;-67
2023/04/10 08:21:18;;;;;;;8.00;3.92;;;20.80;69.90;;;;;;5069263;28;20036;-66
2023/04/10 08:23:45;;;;;;;5.57;3.97;;;21.60;70.00;;;;;;5068400;28;20032;-66
2023/04/10 08:26:14;;;;;;;4.53;3.95;;;21.60;67.80;;;;;;5068560;28;20021;-69
2023/04/10 08:28:40;;;;;;;8.15;3.90;;;21.10;67.00;;;;;;5067860;28;20041;-68
2023/04/10 08:31:06;;;;;;;9.57;4.53;;;22.20;66.90;;;;;;5068239;28;20036;-68
2023/04/10 08:33:32;;;;;;;4.22;3.67;;;22.70;62.90;;;;;;5064616;28;20798;-66
2023/04/10 08:35:57;;;;;;;8.40;3.63;;;23.80;63.10;;;;;;5068854;28;20029;-66
2023/04/10 08:38:26;;;;;;;8.05;3.60;;;23.50;63.70;;;;;;5068595;28;20031;-70
2023/04/10 08:40:52;;;;;;;5.10;3.70;;;23.20;66.70;;;;;;5068321;28;20037;-69
2023/04/10 08:43:17;;;;;;;3.10;2.78;;;23.60;62.30;;;;;;5069177;28;20370;-67
2023/04/10 08:45:43;;;;;;;4.38;3.30;;;24.90;59.50;;;;;;5066562;28;20028;-68
2023/04/10 08:48:10;;;;;;;3.53;2.83;;;25.30;57.40;;;;;;5068296;28;20036;-67
2023/04/10 08:50:40;;;;;;;5.38;3.63;;;25.40;57.90;;;;;;5068347;28;20039;-67
2023/04/10 08:53:12;;;;;;;4.85;3.83;;;25.40;59.50;;;;;;5069468;28;20404;-69
2023/04/10 08:55:39;;;;;;;10.43;3.58;;;27.00;58.70;;;;;;5067238;28;20032;-69
2023/04/10 08:58:05;;;;;;;7.28;3.38;;;27.70;56.10;;;;;;5066883;28;20028;-67
2023/04/10 09:00:37;;;;;;;;;;;28.20;58.00;;;;;;5066417;28;20021;-67
2023/04/10 09:03:04;;;;;;;7.85;3.00;;;27.30;56.90;;;;;;5063331;28;19916;-70
2023/04/10 09:05:30;;;;;;;4.80;3.40;;;26.70;57.80;;;;;;5065326;28;20021;-71
2023/04/10 09:07:56;;;;;;;17.42;4.43;;;25.20;55.90;;;;;;5066633;28;20021;-70
2023/04/10 09:10:22;;;;;;;16.10;4.85;;;26.30;55.80;;;;;;5064176;28;20527;-74
2023/04/10 09:12:48;;;;;;;;;;;28.10;57.40;;;;;;5063043;28;20381;-75
2023/04/10 09:15:14;;;;;;;6.32;3.05;;;28.60;54.40;;;;;;5066787;28;19916;-71
2023/04/10 09:17:55;;;;;;;5.57;2.85;;;29.10;54.80;;;;;;5063333;28;20039;-70
2023/04/10 09:20:22;;;;;;;8.02;2.97;;;28.80;54.40;;;;;;5063233;28;20031;-70
2023/04/10 09:22:48;;;;;;;3.63;2.70;;;28.80;54.40;;;;;;5065883;28;20024;-69
2023/04/10 09:25:32;;;;;;;20.15;3.55;;;29.40;50.30;;;;;;5063185;28;20028;-70
2023/04/10 09:28:02;;;;;;;23.05;3.60;;;28.80;51.50;;;;;;5067933;28;20119;-70
2023/04/10 09:30:34;;;;;;;15.95;4.75;;;28.40;53.40;;;;;;5063550;28;20029;-71
2023/04/10 09:32:59;;;;;;;8.60;2.50;;;26.40;52.90;;;;;;5066699;28;20025;-71
2023/04/10 09:35:35;;;;;;;16.15;3.75;;;27.10;56.40;;;;;;5044258;28;20047;-70
2023/04/10 09:38:12;;;;;;;6.82;3.67;;;27.70;55.20;;;;;;5067262;28;20036;-69
2023/04/10 09:40:37;;;;;;;5.60;2.67;;;28.40;53.70;;;;;;5068538;28;20059;-70
2023/04/10 09:43:25;;;;;;;3.65;2.33;;;28.00;51.50;;;;;;5067944;28;20056;-70
2023/04/10 09:45:56;;;;;;;4.47;3.38;;;29.00;54.30;;;;;;5068797;28;20028;-70
2023/04/10 09:48:23;;;;;;;10.32;3.60;;;29.10;50.70;;;;;;5066341;28;20032;-72
2023/04/10 09:50:49;;;;;;;6.88;3.85;;;28.20;52.20;;;;;;5058210;28;20043;-70
2023/04/10 09:53:19;;;;;;;9.05;3.35;;;29.00;50.10;;;;;;5065791;28;20040;-72
2023/04/10 09:55:46;;;;;;;6.30;3.63;;;30.00;51.30;;;;;;5068701;28;20036;-74
2023/04/10 09:58:13;;;;;;;3.13;2.67;;;29.50;50.80;;;;;;5065211;28;20021;-71
2023/04/10 10:00:43;;;;;;;7.55;3.28;;;28.30;50.80;;;;;;5065886;28;20028;-68
2023/04/10 10:03:16;;;;;;;16.92;6.55;;;28.50;52.30;;;;;;5063277;28;20048;-69
2023/04/10 10:05:47;;;;;;;8.35;4.28;;;27.80;51.10;;;;;;5059988;28;20056;-71
2023/04/10 10:08:14;;;;;;;4.28;2.67;;;27.40;54.40;;;;;;5063694;28;20028;-70
2023/04/10 10:10:52;;;;;;;5.47;3.03;;;28.00;53.80;;;;;;5065442;28;20039;-69
2023/04/10 10:13:46;;;;;;;5.50;3.33;;;28.20;51.60;;;;;;5065256;28;20127;-72
2023/04/10 10:16:19;;;;;;;9.60;3.45;;;27.90;51.40;;;;;;5055997;28;20049;-70
2023/04/10 10:19:09;;;;;;;4.80;2.88;;;27.90;52.70;;;;;;5065736;28;20454;-71
2023/04/10 10:21:35;;;;;;;7.15;3.05;;;27.60;51.20;;;;;;5050927;28;20029;-68
2023/04/10 10:24:02;;;;;;;3.80;2.60;;;27.00;50.50;;;;;;5048681;28;20090;-69
2023/04/10 10:26:30;;;;;;;4.68;2.35;;;27.30;50.30;;;;;;5064390;28;20119;-68
2023/04/10 10:28:58;;;;;;;7.00;3.08;;;27.30;49.90;;;;;;5058708;28;20063;-70
2023/04/10 10:31:24;;;;;;;4.75;2.38;;;28.60;52.50;;;;;;5065672;28;20077;-69
2023/04/10 10:33:53;;;;;;;3.85;3.10;;;27.60;51.70;;;;;;5066041;28;20630;-68
2023/04/10 10:36:19;;;;;;;5.55;2.70;;;27.40;53.50;;;;;;5065575;28;20499;-69
2023/04/10 10:39:17;;;;;;;3.97;2.78;;;27.70;53.00;;;;;;5065504;28;20682;-68
2023/04/10 10:41:55;;;;;;;6.55;2.72;;;27.20;50.90;;;;;;5048447;28;20051;-70
2023/04/10 10:44:42;;;;;;;2.85;1.77;;;26.60;52.70;;;;;;5062057;28;20034;-68
2023/04/10 10:47:21;;;;;;;3.55;1.90;;;26.10;50.30;;;;;;5068005;28;20047;-68
2023/04/10 10:49:55;;;;;;;1.95;1.80;;;25.70;49.50;;;;;;5065947;28;20040;-68
2023/04/10 10:52:36;;;;;;;2.50;1.48;;;25.80;49.30;;;;;;5064952;28;20075;-70
2023/04/10 10:55:21;;;;;;;2.92;2.17;;;25.60;51.70;;;;;;5063554;28;20044;-71
2023/04/10 10:57:54;;;;;;;4.03;2.75;;;26.20;53.70;;;;;;5065382;28;20024;-76
2023/04/10 11:00:22;;;;;;;4.40;2.85;;;25.70;52.90;;;;;;5060212;28;20041;-71
2023/04/10 11:03:13;;;;;;;4.10;2.75;;;25.40;53.20;;;;;;5062935;28;20024;-69
2023/04/10 11:05:54;;;;;;;3.38;2.17;;;24.80;55.00;;;;;;5034836;28;20047;-70
2023/04/10 11:08:32;;;;;;;3.50;2.17;;;24.20;53.00;;;;;;5061537;28;20044;-71
2023/04/10 11:11:06;;;;;;;2.72;2.53;;;24.10;55.10;;;;;;5057943;28;20039;-69
2023/04/10 11:13:36;;;;;;;4.32;2.72;;;24.10;57.20;;;;;;5061796;28;20108;-67
2023/04/10 11:16:03;;;;;;;3.00;2.65;;;24.00;56.20;;;;;;5072364;28;20029;-69
2023/04/10 11:18:44;;;;;;;3.58;2.70;;;24.00;55.00;;;;;;5059891;28;20036;-70
2023/04/10 11:21:18;;;;;;;4.38;2.60;;;24.00;55.50;;;;;;5060702;28;20048;-70
2023/04/10 11:23:53;;;;;;;4.20;2.65;;;24.20;56.60;;;;;;5063770;28;20484;-69
2023/04/10 11:26:34;;;;;;;5.22;2.58;;;24.30;56.80;;;;;;5066150;28;20028;-70
2023/04/10 11:29:00;;;;;;;3.72;2.70;;;24.00;57.50;;;;;;5064997;28;20503;-70
2023/04/10 11:31:26;;;;;;;2.55;2.08;;;23.90;58.70;;;;;;5067577;28;20742;-69
2023/04/10 11:33:58;;;;;;;4.72;2.22;;;23.80;55.60;;;;;;5065461;28;20508;-69
2023/04/10 11:36:23;;;;;;;3.10;2.10;;;23.80;56.60;;;;;;5066050;28;20054;-70
2023/04/10 11:38:53;;;;;;;3.17;2.42;;;23.90;54.70;;;;;;5061560;28;20029;-67
2023/04/10 11:41:19;;;;;;;4.03;2.42;;;23.90;55.80;;;;;;5058969;28;20025;-68
2023/04/10 11:43:49;;;;;;;4.32;2.05;;;23.40;54.50;;;;;;5061525;28;20089;-70
2023/04/10 11:46:15;;;;;;;2.28;1.92;;;23.60;55.90;;;;;;5063040;28;20048;-69
2023/04/10 11:48:41;;;;;;;5.25;1.55;;;23.50;55.10;;;;;;5065714;28;20067;-68
2023/04/10 11:51:11;;;;;;;11.00;1.98;;;23.30;55.80;;;;;;5062204;28;20479;-68
2023/04/10 11:53:38;;;;;;;6.03;1.95;;;23.80;56.60;;;;;;5062447;28;20032;-67
2023/04/10 11:56:06;;;;;;;10.32;2.30;;;24.20;56.20;;;;;;5065163;28;20544;-67
2023/04/10 11:58:32;;;;;;;2.83;1.67;;;24.40;54.70;;;;;;5064719;28;20755;-68
2023/04/10 12:01:01;;;;;;;4.88;1.63;;;24.30;56.10;;;;;;5061631;28;20040;-68
2023/04/10 12:03:41;;;;;;;1.92;1.50;;;24.30;53.50;;;;;;5062084;28;20377;-68
2023/04/10 12:06:12;;;;;;;4.25;1.40;;;24.20;53.30;;;;;;5059447;28;20063;-69
2023/04/10 12:08:40;;;;;;;1.48;1.10;;;24.00;52.70;;;;;;5061035;28;20530;-72
2023/04/10 12:11:07;;;;;;;2.72;1.60;;;24.10;51.80;;;;;;5093637;28;20086;-74
2023/04/10 12:13:32;;;;;;;2.17;1.50;;;24.20;52.50;;;;;;5065229;28;20028;-75
2023/04/10 12:16:01;;;;;;;1.63;1.10;;;24.10;51.90;;;;;;5063841;28;20032;-71
2023/04/10 12:18:28;;;;;;;2.03;1.17;;;24.20;51.60;;;;;;5062793;28;20539;-75
2023/04/10 12:20:56;;;;;;;2.33;1.33;;;23.90;51.80;;;;;;5062651;28;20035;-77
2023/04/10 12:23:22;;;;;;;2.40;1.20;;;24.20;50.60;;;;;;5053811;28;20571;-79
2023/04/10 12:25:48;;;;;;;2.60;1.02;;;24.10;51.30;;;;;;5063676;28;20847;-74
2023/04/10 12:28:21;;;;;;;1.63;1.30;;;24.00;51.80;;;;;;5064791;28;20036;-73
2023/04/10 12:30:53;;;;;;;2.03;1.15;;;24.20;51.40;;;;;;5064726;28;20050;-76
2023/04/10 12:33:23;;;;;;;2.40;1.02;;;24.30;50.20;;;;;;5056480;28;20098;-73
2023/04/10 12:35:49;;;;;;;1.00;0.90;;;24.80;52.20;;;;;;5065530;28;20099;-79
2023/04/10 12:38:14;;;;;;;0.82;0.80;;;24.50;49.40;;;;;;5065795;28;20131;-76
2023/04/10 12:41:02;;;;;;;2.40;1.10;;;24.10;48.00;;;;;;5060498;28;20095;-75
2023/04/10 12:43:39;;;;;;;2.15;0.80;;;24.30;49.60;;;;;;5062017;28;20103;-74
2023/04/10 12:46:06;;;;;;;1.02;0.80;;;24.40;47.00;;;;;;5062136;28;20025;-72
2023/04/10 12:48:32;;;;;;;8.90;1.20;;;24.30;47.90;;;;;;5065505;28;20036;-73
2023/04/10 12:50:58;;;;;;;2.45;0.90;;;23.70;46.60;;;;;;5065881;28;20032;-77
2023/04/10 12:53:25;;;;;;;1.17;1.08;;;23.70;49.60;;;;;;5063847;28;20085;-72